createdAt,value
2019-05-17T00:00:17.899Z,9.48
2019-05-17T00:01:17.861Z,9.43
2019-05-17T00:02:18.459Z,9.50
2019-05-17T00:03:17.841Z,9.46
2019-05-17T00:04:17.823Z,9.42
2019-05-17T00:05:17.941Z,9.47
2019-05-17T00:06:17.805Z,9.48
2019-05-17T00:07:17.806Z,9.46
2019-05-17T00:08:31.041Z,9.47
2019-05-17T00:09:18.780Z,9.48
2019-05-17T00:10:17.754Z,9.46
2019-05-17T00:11:17.743Z,9.47
2019-05-17T00:12:17.750Z,9.48
2019-05-17T00:13:17.722Z,9.50
2019-05-17T00:14:17.711Z,9.50
2019-05-17T00:15:17.706Z,9.47
2019-05-17T00:16:17.716Z,9.48
2019-05-17T00:17:17.714Z,9.53
2019-05-17T00:18:17.686Z,9.46
2019-05-17T00:19:17.653Z,9.51
2019-05-17T00:20:17.731Z,9.47
2019-05-17T00:21:17.633Z,9.46
2019-05-17T00:22:17.619Z,9.51
2019-05-17T00:23:17.623Z,9.46
2019-05-17T00:24:18.324Z,9.51
2019-05-17T00:25:17.589Z,9.50
2019-05-17T00:26:17.579Z,9.46
2019-05-17T00:27:17.563Z,9.48
2019-05-17T00:28:17.585Z,9.46
2019-05-17T00:29:17.556Z,9.47
2019-05-17T00:30:17.831Z,9.38
2019-05-17T00:31:17.519Z,9.33
2019-05-17T00:32:17.511Z,9.40
2019-05-17T00:33:17.525Z,9.31
2019-05-17T00:34:17.486Z,9.38
2019-05-17T00:35:18.006Z,9.35
2019-05-17T00:36:17.971Z,9.35
2019-05-17T00:37:17.568Z,9.17
2019-05-17T00:38:17.469Z,9.14
2019-05-17T00:39:17.465Z,9.11
2019-05-17T00:40:17.423Z,9.11
2019-05-17T00:41:17.713Z,9.04
2019-05-17T00:42:17.396Z,9.02
2019-05-17T00:43:17.404Z,9.01
2019-05-17T00:44:17.377Z,9.02
2019-05-17T00:45:17.760Z,9.02
2019-05-17T00:46:17.396Z,9.08
2019-05-17T00:47:17.350Z,9.02
2019-05-17T00:48:17.376Z,9.02
2019-05-17T00:49:17.351Z,9.02
2019-05-17T00:50:17.364Z,9.04
2019-05-17T00:51:17.305Z,9.01
2019-05-17T00:52:17.302Z,8.99
2019-05-17T00:53:17.303Z,9.10
2019-05-17T00:54:17.613Z,9.01
2019-05-17T00:55:17.696Z,8.99
2019-05-17T00:56:17.266Z,9.01
2019-05-17T00:57:17.240Z,8.99
2019-05-17T00:58:17.553Z,9.02
2019-05-17T00:59:17.285Z,9.13
2019-05-17T01:00:17.414Z,9.10
2019-05-17T01:01:17.197Z,8.99
2019-05-17T01:02:17.208Z,9.04
2019-05-17T01:03:17.267Z,9.05
2019-05-17T01:04:17.476Z,8.99
2019-05-17T01:05:17.365Z,8.99
2019-05-17T01:06:17.149Z,8.99
2019-05-17T01:07:17.710Z,8.99
2019-05-17T01:08:17.560Z,8.96
2019-05-17T01:09:17.227Z,8.95
2019-05-17T01:10:17.098Z,8.84
2019-05-17T01:11:17.081Z,8.84
2019-05-17T01:12:17.075Z,8.91
2019-05-17T01:13:17.421Z,8.81
2019-05-17T01:14:17.689Z,8.76
2019-05-17T01:15:17.039Z,8.77
2019-05-17T01:16:17.035Z,8.73
2019-05-17T01:17:17.012Z,8.76
2019-05-17T01:18:16.998Z,8.71
2019-05-17T01:19:17.012Z,8.76
2019-05-17T01:20:17.488Z,8.74
2019-05-17T01:21:17.008Z,8.73
2019-05-17T01:22:17.468Z,8.70
2019-05-17T01:23:16.945Z,8.71
2019-05-17T01:24:17.458Z,8.66
2019-05-17T01:25:17.346Z,8.68
2019-05-17T01:26:18.423Z,8.65
2019-05-17T01:27:17.347Z,8.56
2019-05-17T01:28:16.887Z,8.58
2019-05-17T01:29:17.505Z,8.58
2019-05-17T01:30:17.445Z,8.61
2019-05-17T01:31:17.351Z,8.56
2019-05-17T01:32:17.334Z,8.56
2019-05-17T01:33:17.268Z,8.50
2019-05-17T01:34:16.892Z,8.56
2019-05-17T01:35:17.052Z,8.53
2019-05-17T01:36:17.289Z,8.45
2019-05-17T01:37:17.294Z,8.44
2019-05-17T01:38:17.773Z,8.37
2019-05-17T01:39:21.129Z,8.34
2019-05-17T01:40:17.576Z,8.28
2019-05-17T01:41:17.349Z,8.18
2019-05-17T01:42:17.327Z,8.19
2019-05-17T01:43:16.812Z,8.12
2019-05-17T01:44:16.911Z,8.10
2019-05-17T01:45:16.933Z,8.10
2019-05-17T01:46:17.215Z,8.07
2019-05-17T01:47:16.798Z,8.08
2019-05-17T01:48:16.680Z,8.12
2019-05-17T01:49:16.688Z,8.11
2019-05-17T01:50:17.478Z,8.10
2019-05-17T01:51:17.051Z,8.08
2019-05-17T01:52:16.835Z,8.04
2019-05-17T01:53:16.776Z,8.04
2019-05-17T01:54:17.598Z,8.15
2019-05-17T01:55:17.366Z,8.16
2019-05-17T01:56:17.028Z,8.18
2019-05-17T01:57:16.979Z,8.11
2019-05-17T01:58:16.564Z,8.11
2019-05-17T01:59:17.324Z,8.18
2019-05-17T02:00:17.538Z,8.23
2019-05-17T02:01:17.089Z,8.15
2019-05-17T02:02:16.522Z,8.15
2019-05-17T02:03:17.313Z,8.15
2019-05-17T02:04:17.362Z,8.19
2019-05-17T02:05:17.291Z,8.28
2019-05-17T02:06:16.673Z,8.10
2019-05-17T02:07:17.298Z,8.22
2019-05-17T02:08:17.109Z,8.26
2019-05-17T02:09:32.339Z,8.18
2019-05-17T02:10:17.445Z,8.16
2019-05-17T02:11:18.468Z,8.12
2019-05-17T02:12:17.318Z,8.15
2019-05-17T02:13:16.593Z,8.11
2019-05-17T02:14:16.711Z,8.18
2019-05-17T02:15:16.629Z,8.11
2019-05-17T02:16:16.624Z,8.19
2019-05-17T02:17:17.420Z,8.25
2019-05-17T02:18:17.369Z,8.15
2019-05-17T02:19:17.444Z,8.20
2019-05-17T02:20:17.016Z,8.20
2019-05-17T02:21:16.816Z,8.23
2019-05-17T02:22:16.852Z,8.25
2019-05-17T02:23:17.435Z,8.22
2019-05-17T02:24:16.906Z,8.22
2019-05-17T02:25:16.708Z,8.23
2019-05-17T02:26:17.407Z,8.29
2019-05-17T02:27:16.234Z,8.22
2019-05-17T02:28:16.225Z,8.22
2019-05-17T02:29:16.220Z,8.19
2019-05-17T02:30:16.222Z,8.20
2019-05-17T02:31:16.193Z,8.16
2019-05-17T02:32:16.183Z,8.15
2019-05-17T02:33:16.172Z,8.15
2019-05-17T02:34:16.187Z,8.25
2019-05-17T02:35:16.158Z,8.19
2019-05-17T02:36:16.133Z,8.19
2019-05-17T02:37:16.135Z,8.18
2019-05-17T02:38:16.117Z,8.18
2019-05-17T02:39:16.098Z,8.16
2019-05-17T02:40:16.111Z,8.20
2019-05-17T02:41:16.081Z,8.16
2019-05-17T02:42:16.081Z,8.07
2019-05-17T02:43:16.058Z,8.08
2019-05-17T02:44:16.046Z,8.15
2019-05-17T02:45:16.056Z,8.16
2019-05-17T02:46:16.022Z,8.19
2019-05-17T02:47:16.513Z,8.16
2019-05-17T02:48:16.008Z,8.11
2019-05-17T02:49:15.990Z,8.22
2019-05-17T02:50:16.005Z,8.07
2019-05-17T02:51:15.964Z,8.18
2019-05-17T02:52:16.058Z,8.20
2019-05-17T02:53:15.946Z,8.11
2019-05-17T02:54:16.469Z,8.08
2019-05-17T02:55:15.959Z,8.16
2019-05-17T02:56:15.912Z,8.15
2019-05-17T02:57:15.911Z,8.15
2019-05-17T02:58:15.892Z,8.19
2019-05-17T02:59:16.451Z,8.10
2019-05-17T03:00:15.912Z,8.11
2019-05-17T03:01:15.851Z,8.08
2019-05-17T03:02:15.853Z,8.19
2019-05-17T03:03:15.836Z,8.10
2019-05-17T03:04:15.827Z,8.08
2019-05-17T03:05:15.843Z,8.16
2019-05-17T03:06:15.832Z,8.19
2019-05-17T03:07:15.785Z,8.11
2019-05-17T03:08:15.782Z,8.11
2019-05-17T03:09:15.762Z,8.22
2019-05-17T03:10:23.567Z,8.20
2019-05-17T03:11:16.740Z,8.20
2019-05-17T03:12:15.743Z,8.20
2019-05-17T03:13:18.013Z,8.11
2019-05-17T03:14:15.711Z,8.25
2019-05-17T03:15:15.723Z,8.16
2019-05-17T03:16:15.722Z,8.15
2019-05-17T03:17:15.689Z,8.15
2019-05-17T03:18:15.674Z,8.20
2019-05-17T03:19:15.654Z,8.22
2019-05-17T03:20:15.659Z,8.20
2019-05-17T03:21:15.649Z,8.23
2019-05-17T03:22:15.629Z,8.11
2019-05-17T03:23:15.637Z,8.10
2019-05-17T03:24:15.614Z,8.10
2019-05-17T03:25:15.610Z,8.12
2019-05-17T03:26:15.582Z,8.18
2019-05-17T03:27:15.589Z,8.16
2019-05-17T03:28:15.563Z,8.08
2019-05-17T03:29:15.560Z,8.12
2019-05-17T03:30:18.316Z,8.08
2019-05-17T03:31:17.269Z,8.16
2019-05-17T03:32:16.935Z,8.10
2019-05-17T03:33:16.762Z,8.12
2019-05-17T03:34:17.421Z,8.04
2019-05-17T03:35:17.599Z,8.12
2019-05-17T03:36:17.263Z,8.12
2019-05-17T03:37:16.332Z,8.12
2019-05-17T03:38:15.451Z,8.12
2019-05-17T03:39:15.439Z,8.11
2019-05-17T03:40:30.596Z,8.07
2019-05-17T03:41:23.416Z,8.08
2019-05-17T03:42:16.404Z,8.11
2019-05-17T03:43:15.391Z,8.12
2019-05-17T03:44:15.379Z,8.19
2019-05-17T03:45:15.377Z,8.07
2019-05-17T03:46:15.379Z,8.12
2019-05-17T03:47:15.339Z,8.05
2019-05-17T03:48:15.343Z,8.15
2019-05-17T03:49:15.323Z,8.12
2019-05-17T03:50:15.312Z,8.25
2019-05-17T03:51:15.318Z,8.08
2019-05-17T03:52:15.289Z,8.12
2019-05-17T03:53:15.299Z,8.10
2019-05-17T03:54:15.274Z,8.18
2019-05-17T03:55:15.267Z,8.12
2019-05-17T03:56:15.256Z,8.10
2019-05-17T03:57:15.235Z,8.12
2019-05-17T03:58:15.222Z,8.11
2019-05-17T03:59:15.206Z,8.12
2019-05-17T04:00:15.202Z,8.15
2019-05-17T04:01:15.219Z,8.11
2019-05-17T04:02:15.190Z,8.16
2019-05-17T04:03:15.191Z,8.20
2019-05-17T04:04:15.184Z,8.23
2019-05-17T04:05:15.148Z,8.11
2019-05-17T04:06:15.226Z,8.15
2019-05-17T04:07:15.124Z,8.18
2019-05-17T04:08:15.119Z,8.16
2019-05-17T04:09:15.103Z,8.22
2019-05-17T04:10:15.629Z,8.22
2019-05-17T04:11:25.703Z,8.23
2019-05-17T04:12:16.076Z,8.29
2019-05-17T04:13:15.061Z,8.26
2019-05-17T04:14:15.053Z,8.26
2019-05-17T04:15:15.046Z,8.36
2019-05-17T04:16:15.050Z,8.41
2019-05-17T04:17:15.009Z,8.37
2019-05-17T04:18:15.004Z,8.40
2019-05-17T04:19:15.007Z,8.41
2019-05-17T04:20:14.979Z,8.44
2019-05-17T04:21:14.961Z,8.41
2019-05-17T04:22:14.960Z,8.52
2019-05-17T04:23:15.453Z,8.41
2019-05-17T04:24:14.937Z,8.44
2019-05-17T04:25:14.948Z,8.44
2019-05-17T04:26:14.923Z,8.48
2019-05-17T04:27:14.924Z,8.48
2019-05-17T04:28:14.889Z,8.47
2019-05-17T04:30:15.935Z,8.48
2019-05-17T04:31:14.876Z,8.48
2019-05-17T04:32:14.875Z,8.53
2019-05-17T04:33:14.837Z,8.43
2019-05-17T04:34:14.823Z,8.50
2019-05-17T04:35:14.812Z,8.55
2019-05-17T04:36:14.824Z,8.58
2019-05-17T04:37:14.805Z,8.56
2019-05-17T04:38:14.774Z,8.59
2019-05-17T04:39:14.767Z,8.59
2019-05-17T04:40:14.981Z,8.56
2019-05-17T04:41:14.756Z,8.61
2019-05-17T04:42:14.757Z,8.61
2019-05-17T04:43:14.727Z,8.65
2019-05-17T04:44:14.713Z,8.70
2019-05-17T04:45:14.719Z,8.70
2019-05-17T04:46:14.690Z,8.70
2019-05-17T04:47:14.707Z,8.71
2019-05-17T04:48:14.667Z,8.71
2019-05-17T04:49:14.661Z,8.71
2019-05-17T04:50:14.648Z,8.62
2019-05-17T04:51:14.651Z,8.71
2019-05-17T04:52:14.650Z,8.77
2019-05-17T04:53:14.617Z,8.76
2019-05-17T04:54:14.604Z,8.83
2019-05-17T04:55:14.592Z,8.81
2019-05-17T04:56:14.578Z,8.77
2019-05-17T04:57:14.723Z,8.81
2019-05-17T04:58:14.556Z,8.83
2019-05-17T04:59:14.544Z,8.84
2019-05-17T05:00:14.533Z,8.89
2019-05-17T05:01:14.522Z,8.99
2019-05-17T05:02:14.533Z,9.01
2019-05-17T05:03:14.500Z,9.08
2019-05-17T05:04:15.464Z,9.11
2019-05-17T05:05:14.622Z,9.13
2019-05-17T05:06:14.481Z,8.98
2019-05-17T05:07:14.479Z,8.98
2019-05-17T05:08:14.446Z,9.05
2019-05-17T05:09:14.446Z,8.99
2019-05-17T05:10:14.594Z,9.04
2019-05-17T05:11:14.413Z,9.02
2019-05-17T05:12:14.441Z,9.05
2019-05-17T05:13:14.389Z,8.98
2019-05-17T05:14:14.382Z,9.05
2019-05-17T05:15:14.382Z,9.08
2019-05-17T05:16:14.352Z,9.17
2019-05-17T05:17:14.353Z,9.14
2019-05-17T05:18:14.364Z,9.17
2019-05-17T05:19:14.326Z,9.20
2019-05-17T05:20:14.310Z,9.17
2019-05-17T05:21:14.309Z,9.15
2019-05-17T05:22:16.943Z,9.26
2019-05-17T05:23:14.307Z,9.32
2019-05-17T05:24:14.270Z,9.32
2019-05-17T05:25:14.250Z,9.39
2019-05-17T05:26:14.243Z,9.42
2019-05-17T05:27:14.240Z,9.50
2019-05-17T05:28:14.243Z,9.46
2019-05-17T05:29:14.230Z,9.51
2019-05-17T05:30:14.191Z,9.60
2019-05-17T05:31:14.196Z,9.54
2019-05-17T05:32:14.208Z,9.58
2019-05-17T05:33:14.181Z,9.56
2019-05-17T05:34:14.151Z,9.60
2019-05-17T05:35:14.152Z,9.68
2019-05-17T05:36:14.129Z,9.68
2019-05-17T05:37:14.128Z,9.72
2019-05-17T05:38:14.135Z,9.71
2019-05-17T05:39:14.099Z,9.75
2019-05-17T05:40:14.087Z,9.79
2019-05-17T05:41:14.092Z,9.83
2019-05-17T05:42:14.241Z,9.81
2019-05-17T05:43:14.069Z,9.78
2019-05-17T05:44:14.037Z,9.91
2019-05-17T05:45:14.027Z,9.91
2019-05-17T05:46:14.019Z,9.93
2019-05-17T05:47:14.010Z,10.08
2019-05-17T05:48:14.028Z,10.04
2019-05-17T05:49:14.005Z,10.15
2019-05-17T05:50:13.977Z,10.08
2019-05-17T05:51:13.968Z,10.23
2019-05-17T05:52:13.955Z,10.30
2019-05-17T05:53:13.959Z,10.27
2019-05-17T05:54:13.931Z,10.42
2019-05-17T05:55:13.935Z,10.47
2019-05-17T05:56:13.909Z,10.40
2019-05-17T05:57:13.899Z,10.52
2019-05-17T05:58:13.915Z,10.41
2019-05-17T05:59:13.906Z,10.55
2019-05-17T06:00:13.880Z,10.55
2019-05-17T06:01:14.284Z,10.52
2019-05-17T06:02:13.838Z,10.66
2019-05-17T06:03:13.835Z,10.70
2019-05-17T06:04:13.839Z,10.78
2019-05-17T06:05:17.241Z,10.74
2019-05-17T06:06:13.829Z,10.79
2019-05-17T06:07:13.801Z,10.78
2019-05-17T06:08:13.777Z,10.78
2019-05-17T06:09:13.789Z,10.81
2019-05-17T06:10:13.751Z,10.79
2019-05-17T06:11:13.737Z,10.81
2019-05-17T06:12:22.920Z,10.88
2019-05-17T06:13:14.720Z,10.96
2019-05-17T06:14:13.750Z,11.02
2019-05-17T06:15:13.696Z,11.02
2019-05-17T06:16:13.723Z,11.07
2019-05-17T06:17:13.677Z,11.07
2019-05-17T06:18:13.667Z,11.10
2019-05-17T06:19:13.675Z,11.19
2019-05-17T06:20:13.638Z,11.22
2019-05-17T06:21:13.631Z,11.10
2019-05-17T06:22:13.620Z,11.27
2019-05-17T06:23:13.619Z,11.32
2019-05-17T06:24:13.626Z,11.28
2019-05-17T06:25:15.580Z,11.35
2019-05-17T06:26:13.565Z,11.40
2019-05-17T06:27:13.559Z,11.47
2019-05-17T06:28:13.549Z,11.49
2019-05-17T06:29:13.558Z,11.60
2019-05-17T06:30:13.528Z,11.61
2019-05-17T06:31:15.186Z,11.62
2019-05-17T06:32:13.505Z,11.70
2019-05-17T06:33:27.147Z,11.67
2019-05-17T06:34:14.497Z,11.73
2019-05-17T06:35:13.473Z,11.88
2019-05-17T06:36:13.825Z,11.83
2019-05-17T06:37:16.486Z,11.86
2019-05-17T06:38:13.447Z,11.95
2019-05-17T06:39:13.453Z,11.96
2019-05-17T06:40:13.495Z,12.04
2019-05-17T06:41:13.408Z,12.09
2019-05-17T06:42:13.393Z,12.10
2019-05-17T06:43:13.467Z,12.10
2019-05-17T06:44:13.391Z,12.24
2019-05-17T06:45:13.368Z,12.37
2019-05-17T06:46:13.359Z,12.39
2019-05-17T06:47:13.344Z,12.41
2019-05-17T06:48:13.338Z,12.41
2019-05-17T06:49:13.332Z,12.50
2019-05-17T06:50:14.472Z,12.52
2019-05-17T06:51:13.305Z,12.54
2019-05-17T06:52:13.280Z,12.53
2019-05-17T06:53:13.275Z,12.67
2019-05-17T06:54:13.295Z,12.72
2019-05-17T06:55:13.370Z,12.77
2019-05-17T06:56:13.237Z,12.82
2019-05-17T06:57:13.223Z,12.79
2019-05-17T06:58:13.215Z,12.92
2019-05-17T06:59:13.205Z,12.90
2019-05-17T07:00:19.867Z,12.92
2019-05-17T07:01:14.187Z,12.93
2019-05-17T07:02:13.175Z,12.93
2019-05-17T07:03:13.159Z,13.03
2019-05-17T07:04:13.143Z,13.12
2019-05-17T07:05:13.305Z,13.25
2019-05-17T07:06:13.127Z,13.25
2019-05-17T07:07:13.122Z,13.23
2019-05-17T07:08:13.121Z,13.26
2019-05-17T07:09:13.089Z,13.32
2019-05-17T07:10:13.104Z,13.22
2019-05-17T07:11:13.089Z,13.28
2019-05-17T07:12:13.059Z,13.23
2019-05-17T07:13:13.044Z,13.17
2019-05-17T07:14:13.036Z,13.45
2019-05-17T07:15:13.084Z,13.42
2019-05-17T07:16:13.012Z,13.60
2019-05-17T07:17:12.999Z,13.69
2019-05-17T07:18:12.994Z,13.71
2019-05-17T07:19:12.979Z,13.75
2019-05-17T07:20:13.018Z,13.85
2019-05-17T07:21:12.956Z,13.87
2019-05-17T07:22:12.948Z,13.89
2019-05-17T07:23:12.937Z,13.97
2019-05-17T07:24:12.926Z,14.03
2019-05-17T07:25:12.940Z,13.99
2019-05-17T07:26:12.903Z,14.06
2019-05-17T07:27:12.889Z,14.04
2019-05-17T07:28:12.889Z,14.12
2019-05-17T07:29:12.869Z,14.09
2019-05-17T07:30:12.887Z,14.18
2019-05-17T07:31:12.852Z,14.25
2019-05-17T07:32:12.837Z,14.32
2019-05-17T07:33:12.819Z,14.37
2019-05-17T07:34:12.815Z,14.45
2019-05-17T07:35:12.819Z,14.45
2019-05-17T07:36:12.790Z,14.50
2019-05-17T07:37:12.781Z,14.50
2019-05-17T07:38:12.779Z,14.47
2019-05-17T07:39:12.760Z,14.60
2019-05-17T07:40:12.763Z,14.50
2019-05-17T07:41:12.736Z,14.51
2019-05-17T07:42:12.778Z,14.58
2019-05-17T07:43:14.940Z,14.61
2019-05-17T07:44:12.697Z,14.62
2019-05-17T07:45:12.728Z,14.68
2019-05-17T07:46:12.681Z,14.69
2019-05-17T07:47:12.680Z,14.86
2019-05-17T07:48:12.659Z,14.96
2019-05-17T07:49:12.649Z,14.99
2019-05-17T07:50:13.082Z,14.99
2019-05-17T07:51:12.666Z,15.02
2019-05-17T07:52:12.616Z,15.06
2019-05-17T07:53:12.615Z,15.13
2019-05-17T07:54:12.583Z,15.23
2019-05-17T07:55:12.585Z,15.13
2019-05-17T07:56:12.587Z,15.25
2019-05-17T07:57:12.557Z,15.35
2019-05-17T07:58:12.551Z,15.35
2019-05-17T07:59:12.531Z,15.44
2019-05-17T08:00:12.532Z,15.46
2019-05-17T08:01:12.600Z,15.49
2019-05-17T08:02:12.504Z,15.59
2019-05-17T08:03:13.558Z,15.57
2019-05-17T08:04:12.479Z,15.59
2019-05-17T08:05:12.475Z,15.57
2019-05-17T08:06:12.559Z,15.68
2019-05-17T08:07:12.452Z,15.59
2019-05-17T08:08:12.447Z,15.59
2019-05-17T08:09:14.218Z,15.57
2019-05-17T08:10:12.412Z,15.57
2019-05-17T08:11:12.415Z,15.49
2019-05-17T08:12:12.393Z,15.59
2019-05-17T08:13:25.819Z,15.64
2019-05-17T08:14:26.470Z,15.71
2019-05-17T08:15:13.351Z,15.74
2019-05-17T08:16:12.371Z,15.78
2019-05-17T08:17:12.336Z,15.84
2019-05-17T08:18:12.321Z,15.84
2019-05-17T08:19:12.307Z,15.78
2019-05-17T08:20:12.430Z,15.78
2019-05-17T08:21:12.308Z,15.86
2019-05-17T08:22:12.317Z,15.80
2019-05-17T08:23:12.264Z,15.82
2019-05-17T08:24:12.264Z,15.76
2019-05-17T08:25:12.245Z,15.82
2019-05-17T08:26:12.255Z,15.90
2019-05-17T08:27:12.220Z,15.96
2019-05-17T08:28:12.210Z,15.92
2019-05-17T08:29:12.199Z,16.02
2019-05-17T08:30:12.189Z,16.08
2019-05-17T08:31:12.588Z,16.09
2019-05-17T08:32:12.163Z,16.23
2019-05-17T08:33:12.155Z,16.24
2019-05-17T08:34:12.138Z,16.35
2019-05-17T08:35:12.135Z,16.33
2019-05-17T08:36:12.143Z,16.42
2019-05-17T08:37:12.131Z,16.41
2019-05-17T08:38:12.102Z,16.45
2019-05-17T08:39:12.093Z,16.60
2019-05-17T08:40:15.056Z,16.67
2019-05-17T08:41:12.081Z,16.71
2019-05-17T08:42:12.096Z,16.78
2019-05-17T08:43:12.057Z,16.86
2019-05-17T08:44:12.039Z,16.96
2019-05-17T08:45:12.019Z,16.94
2019-05-17T08:46:12.026Z,17.04
2019-05-17T08:47:11.995Z,17.07
2019-05-17T08:48:11.991Z,17.00
2019-05-17T08:49:11.971Z,17.22
2019-05-17T08:50:11.967Z,17.21
2019-05-17T08:51:11.972Z,17.26
2019-05-17T08:52:11.951Z,17.19
2019-05-17T08:53:11.953Z,17.15
2019-05-17T08:54:11.944Z,17.37
2019-05-17T08:55:11.933Z,17.36
2019-05-17T08:56:11.916Z,17.38
2019-05-17T08:57:11.887Z,17.33
2019-05-17T08:58:11.877Z,17.46
2019-05-17T08:59:11.868Z,17.51
2019-05-17T09:00:11.846Z,17.56
2019-05-17T09:01:11.862Z,17.58
2019-05-17T09:02:11.827Z,17.64
2019-05-17T09:03:11.826Z,17.41
2019-05-17T09:04:11.823Z,17.34
2019-05-17T09:05:11.804Z,17.30
2019-05-17T09:06:12.686Z,17.28
2019-05-17T09:07:11.921Z,17.16
2019-05-17T09:08:11.763Z,17.23
2019-05-17T09:09:11.747Z,17.38
2019-05-17T09:10:11.749Z,17.49
2019-05-17T09:11:11.742Z,17.43
2019-05-17T09:12:11.748Z,17.49
2019-05-17T09:13:14.668Z,17.52
2019-05-17T09:14:11.698Z,17.68
2019-05-17T09:15:11.727Z,17.71
2019-05-17T09:16:11.686Z,17.71
2019-05-17T09:17:11.738Z,17.68
2019-05-17T09:18:11.650Z,17.70
2019-05-17T09:19:11.641Z,17.77
2019-05-17T09:20:11.645Z,17.77
2019-05-17T09:21:11.616Z,17.77
2019-05-17T09:22:11.628Z,17.86
2019-05-17T09:23:11.598Z,17.93
2019-05-17T09:24:11.594Z,18.10
2019-05-17T09:25:18.488Z,18.03
2019-05-17T09:26:12.562Z,18.03
2019-05-17T09:27:11.576Z,18.03
2019-05-17T09:28:11.548Z,18.07
2019-05-17T09:29:11.524Z,18.10
2019-05-17T09:30:11.525Z,18.05
2019-05-17T09:31:11.508Z,18.03
2019-05-17T09:32:11.530Z,18.00
2019-05-17T09:33:11.618Z,18.07
2019-05-17T09:34:11.476Z,18.15
2019-05-17T09:35:12.075Z,18.20
2019-05-17T09:36:11.489Z,18.25
2019-05-17T09:37:14.497Z,18.39
2019-05-17T09:38:11.430Z,18.21
2019-05-17T09:39:11.421Z,18.15
2019-05-17T09:40:11.407Z,18.07
2019-05-17T09:41:11.398Z,18.10
2019-05-17T09:42:11.402Z,18.20
2019-05-17T09:43:11.371Z,18.18
2019-05-17T09:44:15.843Z,18.21
2019-05-17T09:45:12.351Z,18.25
2019-05-17T09:46:11.396Z,18.29
2019-05-17T09:47:11.363Z,18.29
2019-05-17T09:48:11.327Z,18.30
2019-05-17T09:49:11.309Z,18.33
2019-05-17T09:50:11.300Z,18.48
2019-05-17T09:51:11.285Z,18.44
2019-05-17T09:52:11.293Z,18.51
2019-05-17T09:53:11.259Z,18.51
2019-05-17T09:54:11.245Z,18.55
2019-05-17T09:55:11.259Z,18.72
2019-05-17T09:56:11.233Z,18.72
2019-05-17T09:57:11.254Z,18.73
2019-05-17T09:58:11.209Z,18.66
2019-05-17T09:59:11.217Z,18.67
2019-05-17T10:00:11.184Z,18.82
2019-05-17T10:01:11.176Z,18.75
2019-05-17T10:02:11.157Z,18.69
2019-05-17T10:03:11.166Z,18.84
2019-05-17T10:04:13.400Z,18.94
2019-05-17T10:05:11.142Z,19.07
2019-05-17T10:06:11.119Z,19.16
2019-05-17T10:07:11.115Z,19.39
2019-05-17T10:08:11.242Z,19.44
2019-05-17T10:09:11.079Z,19.66
2019-05-17T10:10:11.111Z,20.03
2019-05-17T10:11:12.111Z,20.32
2019-05-17T10:12:11.061Z,20.57
2019-05-17T10:13:11.065Z,20.82
2019-05-17T10:14:24.616Z,21.04
2019-05-17T10:15:12.026Z,21.35
2019-05-17T10:16:11.024Z,21.61
2019-05-17T10:17:10.989Z,21.75
2019-05-17T10:18:11.359Z,22.09
2019-05-17T10:19:10.969Z,22.36
2019-05-17T10:20:11.062Z,22.43
2019-05-17T10:21:10.960Z,22.39
2019-05-17T10:22:10.947Z,21.86
2019-05-17T10:23:11.004Z,21.46
2019-05-17T10:24:10.913Z,21.59
2019-05-17T10:25:10.903Z,21.44
2019-05-17T10:26:10.893Z,21.94
2019-05-17T10:27:11.165Z,22.09
2019-05-17T10:28:10.903Z,22.45
2019-05-17T10:29:10.867Z,23.16
2019-05-17T10:30:10.861Z,23.80
2019-05-17T10:31:11.981Z,24.21
2019-05-17T10:32:10.835Z,23.70
2019-05-17T10:33:10.841Z,23.35
2019-05-17T10:34:10.835Z,22.95
2019-05-17T10:35:10.817Z,22.43
2019-05-17T10:36:10.787Z,22.27
2019-05-17T10:37:10.773Z,22.17
2019-05-17T10:38:10.792Z,21.92
2019-05-17T10:39:10.764Z,21.84
2019-05-17T10:40:10.925Z,21.75
2019-05-17T10:41:10.726Z,21.75
2019-05-17T10:42:10.716Z,21.65
2019-05-17T10:43:10.731Z,21.38
2019-05-17T10:44:10.709Z,21.22
2019-05-17T10:45:11.230Z,21.06
2019-05-17T10:46:10.782Z,20.98
2019-05-17T10:47:10.669Z,20.89
2019-05-17T10:48:10.670Z,20.87
2019-05-17T10:49:10.991Z,20.82
2019-05-17T10:50:11.089Z,20.69
2019-05-17T10:51:13.252Z,20.57
2019-05-17T10:52:10.626Z,20.50
2019-05-17T10:53:10.644Z,20.43
2019-05-17T10:54:10.592Z,20.26
2019-05-17T10:55:10.922Z,20.16
2019-05-17T10:56:10.580Z,20.10
2019-05-17T10:57:10.673Z,20.01
2019-05-17T10:58:10.618Z,19.95
2019-05-17T10:59:10.530Z,20.01
2019-05-17T11:00:10.525Z,19.96
2019-05-17T11:01:10.507Z,19.87
2019-05-17T11:02:10.505Z,19.88
2019-05-17T11:03:10.519Z,19.76
2019-05-17T11:04:10.597Z,19.74
2019-05-17T11:05:10.746Z,19.65
2019-05-17T11:06:11.117Z,19.55
2019-05-17T11:07:10.659Z,19.44
2019-05-17T11:08:10.965Z,19.39
2019-05-17T11:09:10.453Z,19.37
2019-05-17T11:10:11.675Z,19.37
2019-05-17T11:11:10.399Z,19.14
2019-05-17T11:12:10.398Z,19.08
2019-05-17T11:13:10.392Z,18.99
2019-05-17T11:14:10.374Z,19.07
2019-05-17T11:15:11.989Z,19.10
2019-05-17T11:16:10.353Z,19.08
2019-05-17T11:17:10.339Z,19.16
2019-05-17T11:18:10.345Z,18.99
2019-05-17T11:19:10.316Z,19.13
2019-05-17T11:20:10.313Z,19.11
2019-05-17T11:21:10.289Z,19.16
2019-05-17T11:22:10.365Z,19.19
2019-05-17T11:23:10.367Z,19.31
2019-05-17T11:24:10.275Z,19.31
2019-05-17T11:25:10.250Z,19.44
2019-05-17T11:26:10.253Z,19.50
2019-05-17T11:27:10.221Z,19.62
2019-05-17T11:28:10.245Z,19.71
2019-05-17T11:29:10.200Z,19.83
2019-05-17T11:30:10.189Z,19.95
2019-05-17T11:31:10.188Z,20.05
2019-05-17T11:32:10.184Z,20.33
2019-05-17T11:33:10.193Z,20.58
2019-05-17T11:34:10.147Z,20.55
2019-05-17T11:35:10.155Z,20.57
2019-05-17T11:36:10.124Z,20.61
2019-05-17T11:37:10.121Z,20.61
2019-05-17T11:38:10.134Z,20.54
2019-05-17T11:39:10.149Z,20.55
2019-05-17T11:40:10.101Z,20.51
2019-05-17T11:41:20.620Z,20.55
2019-05-17T11:42:11.070Z,20.32
2019-05-17T11:43:10.075Z,20.31
2019-05-17T11:44:10.094Z,20.26
2019-05-17T11:45:10.038Z,20.26
2019-05-17T11:46:10.026Z,20.14
2019-05-17T11:47:10.018Z,20.05
2019-05-17T11:48:10.014Z,19.98
2019-05-17T11:49:10.007Z,19.74
2019-05-17T11:50:09.986Z,19.47
2019-05-17T11:51:09.979Z,19.43
2019-05-17T11:52:09.999Z,19.32
2019-05-17T11:54:11.087Z,19.11
2019-05-17T11:55:09.917Z,19.22
2019-05-17T11:56:09.951Z,19.28
2019-05-17T11:57:12.290Z,19.29
2019-05-17T11:58:09.890Z,19.32
2019-05-17T11:59:09.893Z,19.29
2019-05-17T12:00:09.873Z,19.31
2019-05-17T12:01:09.850Z,19.36
2019-05-17T12:02:09.839Z,19.40
2019-05-17T12:03:09.844Z,19.51
2019-05-17T12:04:09.849Z,19.63
2019-05-17T12:05:09.811Z,19.83
2019-05-17T12:06:09.809Z,19.96
2019-05-17T12:07:09.790Z,20.05
2019-05-17T12:08:09.773Z,20.26
2019-05-17T12:09:09.781Z,20.42
2019-05-17T12:10:09.751Z,20.64
2019-05-17T12:11:09.743Z,20.92
2019-05-17T12:12:09.733Z,21.25
2019-05-17T12:13:09.714Z,21.42
2019-05-17T12:14:09.725Z,21.56
2019-05-17T12:15:09.694Z,21.79
2019-05-17T12:16:09.704Z,21.90
2019-05-17T12:17:09.694Z,22.10
2019-05-17T12:18:09.665Z,22.43
2019-05-17T12:19:09.669Z,22.45
2019-05-17T12:20:09.648Z,22.72
2019-05-17T12:21:09.633Z,22.80
2019-05-17T12:22:09.637Z,22.82
2019-05-17T12:23:09.629Z,22.58
2019-05-17T12:24:09.620Z,22.70
2019-05-17T12:25:09.582Z,22.57
2019-05-17T12:26:09.575Z,22.52
2019-05-17T12:27:09.571Z,22.47
2019-05-17T12:28:09.566Z,22.37
2019-05-17T12:29:09.573Z,22.25
2019-05-17T12:30:09.553Z,22.03
2019-05-17T12:31:09.528Z,22.24
2019-05-17T12:32:14.329Z,22.15
2019-05-17T12:33:10.495Z,22.06
2019-05-17T12:34:09.513Z,21.83
2019-05-17T12:35:09.480Z,21.82
2019-05-17T12:36:09.463Z,21.52
2019-05-17T12:37:09.471Z,21.29
2019-05-17T12:38:09.444Z,21.07
2019-05-17T12:39:09.460Z,20.69
2019-05-17T12:40:09.458Z,20.58
2019-05-17T12:41:09.417Z,20.41
2019-05-17T12:42:09.482Z,20.39
2019-05-17T12:43:09.407Z,20.17
2019-05-17T12:44:09.435Z,20.01
2019-05-17T12:45:09.379Z,19.88
2019-05-17T12:46:09.365Z,19.86
2019-05-17T12:47:09.353Z,19.71
2019-05-17T12:48:09.336Z,19.73
2019-05-17T12:49:09.360Z,19.63
2019-05-17T12:50:09.325Z,19.65
2019-05-17T12:51:09.304Z,19.62
2019-05-17T12:52:09.293Z,19.65
2019-05-17T12:53:09.298Z,19.61
2019-05-17T12:54:09.290Z,19.50
2019-05-17T12:55:09.310Z,19.56
2019-05-17T12:56:09.266Z,19.59
2019-05-17T12:57:09.237Z,19.74
2019-05-17T12:58:09.224Z,19.73
2019-05-17T12:59:09.236Z,19.77
2019-05-17T13:00:09.205Z,19.71
2019-05-17T13:01:09.193Z,19.73
2019-05-17T13:02:12.238Z,19.80
2019-05-17T13:03:09.163Z,19.81
2019-05-17T13:04:09.173Z,19.86
2019-05-17T13:05:09.171Z,19.86